Yellow Jacket, CO

2:40 AM MST on November 27, 2014 (GMT -0700)
Cahone (2.5 Miles NNE) | Change Station
CLOSE
Current Station
Personal Weather Station
Location: Cahone, CO
Elevation: 6870 ft
Nearby Weather Stations
Active Advisory: Special Weather Statement

Elev 6870 ft 37.69 °N, 108.80 °W | Updated 5 seconds ago

Clear
Clear
33.1 °F
Feels Like 29 °F
N
4.0
Wind Variable Wind from NE
Gusts 5.0 mph

Today
High -- | Low -- °F
--% Chance of Precip.
Yesterday
High -- | Low -- °F
Precip. -- in
7:07 AM 4:58 PM
Waxing Crescent, 28% visible
Pressure 30.43 in
Visibility 10.0 miles
Clouds Clear
Windchill 29 °F
Dew Point 20 °F
Humidity 59%
Rainfall 0.00 in
Snow Depth Not available.
UV 0 out of 12
Pollen .30 out of 12
Air Quality Not available.
Flu Activity Not available.
METAR KCEZ 270853Z AUTO 04008KT 10SM CLR M04/M07 A3047 RMK AO2 SLP305 T10391067 52000

More Conditions Fewer Conditions

Pressure 30.43 in
Visibility 10.0 miles
Clouds Clear
Windchill 29 °F
Dew Point 20 °F
Humidity 59%
Rainfall 0.00 in
Snow Depth Not available.
UV 0 out of 12
Pollen .30 out of 12
Air Quality Not available.
Flu Activity Not available.
METAR KCEZ 270853Z AUTO 04008KT 10SM CLR M04/M07 A3047 RMK AO2 SLP305 T10391067 52000

More Conditions Fewer Conditions

10-Day Weather Forecast

Almanac

Astronomy

Nov. 27, 2014 Rise Set
Actual Time
Civil Twilight
Nautical Twilight
Astronomical Twilight
Moon
Length of Visible Light
Length of Day
Tomorrow will be .
, % of the Moon is Illuminated

Today's Extremes

State Highs State Lows

Community

WunderPhotos

Upload Photos

1,773,965 photos uploaded!

WunderBlogs® & News

Nearby

Air Quality

  Air Quality AQ Index Pollutant
Not available.

Snow Depth

Station Depth Elevation

Earthquake Activity

City Distance Mag. Time & Date
Minimum magnitude displayed is 2.5.

Coastal Water Temperatures

Place Temperature

Nearby Weather Stations